sensor_id;sensor_type;location;lat;lon;timestamp;pressure;altitude;pressure_sealevel;temperature
70668;BMP280;58242;51.250;-1.118;2023-08-08T00:00:12;100433.31;;;20.47
70668;BMP280;58242;51.250;-1.118;2023-08-08T00:02:37;100423.22;;;20.47
70668;BMP280;58242;51.250;-1.118;2023-08-08T00:05:03;100417.03;;;20.47
70668;BMP280;58242;51.250;-1.118;2023-08-08T00:07:28;100424.03;;;20.48
70668;BMP280;58242;51.250;-1.118;2023-08-08T00:09:56;100420.53;;;20.47
70668;BMP280;58242;51.250;-1.118;2023-08-08T00:12:23;100422.44;;;20.47
70668;BMP280;58242;51.250;-1.118;2023-08-08T00:14:48;100410.84;;;20.46
70668;BMP280;58242;51.250;-1.118;2023-08-08T00:17:14;100416.28;;;20.46
70668;BMP280;58242;51.250;-1.118;2023-08-08T00:19:39;100412.78;;;20.46
70668;BMP280;58242;51.250;-1.118;2023-08-08T00:22:05;100410.84;;;20.46
70668;BMP280;58242;51.250;-1.118;2023-08-08T00:24:31;100405.41;;;20.46
70668;BMP280;58242;51.250;-1.118;2023-08-08T00:26:56;100396.47;;;20.46
70668;BMP280;58242;51.250;-1.118;2023-08-08T00:29:21;100397.25;;;20.46
70668;BMP280;58242;51.250;-1.118;2023-08-08T00:31:46;100396.84;;;20.44
70668;BMP280;58242;51.250;-1.118;2023-08-08T00:34:12;100387.91;;;20.44
70668;BMP280;58242;51.250;-1.118;2023-08-08T00:36:37;100386.34;;;20.43
70668;BMP280;58242;51.250;-1.118;2023-08-08T00:39:02;100387.53;;;20.42
70668;BMP280;58242;51.250;-1.118;2023-08-08T00:41:28;100393.31;;;20.40
70668;BMP280;58242;51.250;-1.118;2023-08-08T00:43:53;100394.09;;;20.38
70668;BMP280;58242;51.250;-1.118;2023-08-08T00:46:21;100398.34;;;20.35
70668;BMP280;58242;51.250;-1.118;2023-08-08T00:48:46;100399.88;;;20.33
70668;BMP280;58242;51.250;-1.118;2023-08-08T00:51:12;100390.94;;;20.32
70668;BMP280;58242;51.250;-1.118;2023-08-08T00:53:38;100384.38;;;20.33
70668;BMP280;58242;51.250;-1.118;2023-08-08T00:56:03;100395.22;;;20.33
70668;BMP280;58242;51.250;-1.118;2023-08-08T00:58:28;100393.28;;;20.34
70668;BMP280;58242;51.250;-1.118;2023-08-08T01:00:55;100393.66;;;20.32
70668;BMP280;58242;51.250;-1.118;2023-08-08T01:03:22;100387.84;;;20.30
70668;BMP280;58242;51.250;-1.118;2023-08-08T01:05:53;100374.28;;;20.30
70668;BMP280;58242;51.250;-1.118;2023-08-08T01:08:27;100370.31;;;20.28
70668;BMP280;58242;51.250;-1.118;2023-08-08T01:10:55;100369.94;;;20.26
70668;BMP280;58242;51.250;-1.118;2023-08-08T01:13:23;100368.00;;;20.23
70668;BMP280;58242;51.250;-1.118;2023-08-08T01:15:50;100366.41;;;20.19
70668;BMP280;58242;51.250;-1.118;2023-08-08T01:18:16;100357.47;;;20.15
70668;BMP280;58242;51.250;-1.118;2023-08-08T01:20:43;100356.28;;;20.12
70668;BMP280;58242;51.250;-1.118;2023-08-08T01:23:23;100352.78;;;20.08
70668;BMP280;58242;51.250;-1.118;2023-08-08T01:25:49;100347.22;;;19.91
70668;BMP280;58242;51.250;-1.118;2023-08-08T01:28:15;100347.63;;;19.93
70668;BMP280;58242;51.250;-1.118;2023-08-08T01:30:41;100352.28;;;19.93
70668;BMP280;58242;51.250;-1.118;2023-08-08T01:33:07;100347.19;;;19.88
70668;BMP280;58242;51.250;-1.118;2023-08-08T01:35:40;100346.75;;;19.83
70668;BMP280;58242;51.250;-1.118;2023-08-08T01:38:12;100349.84;;;19.78
70668;BMP280;58242;51.250;-1.118;2023-08-08T01:40:39;100356.38;;;19.73
70668;BMP280;58242;51.250;-1.118;2023-08-08T01:43:06;100350.94;;;19.70
70668;BMP280;58242;51.250;-1.118;2023-08-08T01:45:32;100348.97;;;19.67
70668;BMP280;58242;51.250;-1.118;2023-08-08T01:47:57;100364.03;;;19.65
70668;BMP280;58242;51.250;-1.118;2023-08-08T01:50:23;100371.00;;;19.62
70668;BMP280;58242;51.250;-1.118;2023-08-08T01:52:48;100361.31;;;19.61
70668;BMP280;58242;51.250;-1.118;2023-08-08T01:55:13;100360.53;;;19.61
70668;BMP280;58242;51.250;-1.118;2023-08-08T01:57:39;100354.72;;;19.59
70668;BMP280;58242;51.250;-1.118;2023-08-08T02:00:05;100357.44;;;19.59
70668;BMP280;58242;51.250;-1.118;2023-08-08T02:02:31;100359.34;;;19.58
70668;BMP280;58242;51.250;-1.118;2023-08-08T02:04:56;100356.66;;;19.58
70668;BMP280;58242;51.250;-1.118;2023-08-08T02:07:22;100355.84;;;19.58
70668;BMP280;58242;51.250;-1.118;2023-08-08T02:09:47;100356.66;;;19.58
70668;BMP280;58242;51.250;-1.118;2023-08-08T02:12:14;100355.50;;;19.59
70668;BMP280;58242;51.250;-1.118;2023-08-08T02:14:39;100352.38;;;19.57
70668;BMP280;58242;51.250;-1.118;2023-08-08T02:17:04;100336.84;;;19.54
70668;BMP280;58242;51.250;-1.118;2023-08-08T02:19:30;100337.59;;;19.52
70668;BMP280;58242;51.250;-1.118;2023-08-08T02:21:55;100328.22;;;19.46
70668;BMP280;58242;51.250;-1.118;2023-08-08T02:24:21;100327.78;;;19.40
70668;BMP280;58242;51.250;-1.118;2023-08-08T02:26:46;100338.97;;;19.35
70668;BMP280;58242;51.250;-1.118;2023-08-08T02:29:11;100336.59;;;19.31
70668;BMP280;58242;51.250;-1.118;2023-08-08T02:31:37;100336.94;;;19.26
70668;BMP280;58242;51.250;-1.118;2023-08-08T02:34:02;100338.47;;;19.23
70668;BMP280;58242;51.250;-1.118;2023-08-08T02:36:27;100330.28;;;19.20
70668;BMP280;58242;51.250;-1.118;2023-08-08T02:38:52;100326.78;;;19.16
70668;BMP280;58242;51.250;-1.118;2023-08-08T02:41:19;100324.03;;;19.13
70668;BMP280;58242;51.250;-1.118;2023-08-08T02:43:45;100312.81;;;19.11
70668;BMP280;58242;51.250;-1.118;2023-08-08T02:46:10;100318.94;;;19.08
70668;BMP280;58242;51.250;-1.118;2023-08-08T02:48:35;100318.91;;;19.04
70668;BMP280;58242;51.250;-1.118;2023-08-08T02:51:01;100324.28;;;19.01
70668;BMP280;58242;51.250;-1.118;2023-08-08T02:53:26;100333.97;;;18.99
70668;BMP280;58242;51.250;-1.118;2023-08-08T02:55:51;100336.66;;;18.99
70668;BMP280;58242;51.250;-1.118;2023-08-08T02:58:17;100327.75;;;18.98
70668;BMP280;58242;51.250;-1.118;2023-08-08T03:00:42;100335.88;;;18.98
70668;BMP280;58242;51.250;-1.118;2023-08-08T03:03:07;100335.47;;;18.96
70668;BMP280;58242;51.250;-1.118;2023-08-08T03:05:34;100336.25;;;18.97
70668;BMP280;58242;51.250;-1.118;2023-08-08T03:07:59;100346.69;;;18.95
70668;BMP280;58242;51.250;-1.118;2023-08-08T03:10:25;100346.69;;;18.95
70668;BMP280;58242;51.250;-1.118;2023-08-08T03:12:50;100347.47;;;18.95
70668;BMP280;58242;51.250;-1.118;2023-08-08T03:15:15;100349.78;;;18.97
70668;BMP280;58242;51.250;-1.118;2023-08-08T03:17:41;100346.34;;;19.00
70668;BMP280;58242;51.250;-1.118;2023-08-08T03:20:07;100343.69;;;19.03
70668;BMP280;58242;51.250;-1.118;2023-08-08T03:22:32;100330.97;;;19.07
70668;BMP280;58242;51.250;-1.118;2023-08-08T03:24:58;100326.72;;;19.09
70668;BMP280;58242;51.250;-1.118;2023-08-08T03:27:24;100328.28;;;19.10
70668;BMP280;58242;51.250;-1.118;2023-08-08T03:29:50;100320.19;;;19.14
70668;BMP280;58242;51.250;-1.118;2023-08-08T03:32:15;100315.16;;;19.16
70668;BMP280;58242;51.250;-1.118;2023-08-08T03:34:40;100325.25;;;19.18
70668;BMP280;58242;51.250;-1.118;2023-08-08T03:37:05;100312.09;;;19.20
70668;BMP280;58242;51.250;-1.118;2023-08-08T03:39:31;100322.59;;;19.22
70668;BMP280;58242;51.250;-1.118;2023-08-08T03:41:56;100331.91;;;19.24
70668;BMP280;58242;51.250;-1.118;2023-08-08T03:44:21;100328.41;;;19.24
70668;BMP280;58242;51.250;-1.118;2023-08-08T03:46:47;100330.75;;;19.25
70668;BMP280;58242;51.250;-1.118;2023-08-08T03:49:12;100330.75;;;19.25
70668;BMP280;58242;51.250;-1.118;2023-08-08T03:51:37;100334.59;;;19.24
70668;BMP280;58242;51.250;-1.118;2023-08-08T03:54:03;100339.66;;;19.26
70668;BMP280;58242;51.250;-1.118;2023-08-08T03:56:28;100335.78;;;19.27
70668;BMP280;58242;51.250;-1.118;2023-08-08T03:58:54;100340.06;;;19.28
70668;BMP280;58242;51.250;-1.118;2023-08-08T04:01:19;100338.53;;;19.30
70668;BMP280;58242;51.250;-1.118;2023-08-08T04:03:44;100325.38;;;19.32
70668;BMP280;58242;51.250;-1.118;2023-08-08T04:06:10;100330.06;;;19.35
70668;BMP280;58242;51.250;-1.118;2023-08-08T04:08:35;100341.31;;;19.37
70668;BMP280;58242;51.250;-1.118;2023-08-08T04:11:00;100328.50;;;19.37
70668;BMP280;58242;51.250;-1.118;2023-08-08T04:13:26;100329.72;;;19.40
70668;BMP280;58242;51.250;-1.118;2023-08-08T04:15:51;100327.78;;;19.40
70668;BMP280;58242;51.250;-1.118;2023-08-08T04:18:17;100323.53;;;19.43
70668;BMP280;58242;51.250;-1.118;2023-08-08T04:20:42;100320.84;;;19.43
70668;BMP280;58242;51.250;-1.118;2023-08-08T04:23:08;100329.00;;;19.46
70668;BMP280;58242;51.250;-1.118;2023-08-08T04:25:33;100336.75;;;19.48
70668;BMP280;58242;51.250;-1.118;2023-08-08T04:27:58;100312.75;;;19.50
70668;BMP280;58242;51.250;-1.118;2023-08-08T04:30:24;100316.59;;;19.49
70668;BMP280;58242;51.250;-1.118;2023-08-08T04:32:49;100324.06;;;19.52
70668;BMP280;58242;51.250;-1.118;2023-08-08T04:35:14;100324.84;;;19.52
70668;BMP280;58242;51.250;-1.118;2023-08-08T04:37:40;100320.16;;;19.52
70668;BMP280;58242;51.250;-1.118;2023-08-08T04:40:06;100315.53;;;19.53
70668;BMP280;58242;51.250;-1.118;2023-08-08T04:42:33;100307.78;;;19.52
70668;BMP280;58242;51.250;-1.118;2023-08-08T04:44:58;100312.03;;;19.52
70668;BMP280;58242;51.250;-1.118;2023-08-08T04:47:24;100308.13;;;19.50
70668;BMP280;58242;51.250;-1.118;2023-08-08T04:49:49;100312.75;;;19.50
70668;BMP280;58242;51.250;-1.118;2023-08-08T04:52:14;100310.84;;;19.50
70668;BMP280;58242;51.250;-1.118;2023-08-08T04:54:40;100312.41;;;19.51
70668;BMP280;58242;51.250;-1.118;2023-08-08T04:57:05;100318.63;;;19.52
70668;BMP280;58242;51.250;-1.118;2023-08-08T04:59:31;100324.06;;;19.52
70668;BMP280;58242;51.250;-1.118;2023-08-08T05:01:57;100318.63;;;19.52
70668;BMP280;58242;51.250;-1.118;2023-08-08T05:04:22;100313.22;;;19.55
70668;BMP280;58242;51.250;-1.118;2023-08-08T05:06:47;100309.75;;;19.58
70668;BMP280;58242;51.250;-1.118;2023-08-08T05:09:13;100309.41;;;19.63
70668;BMP280;58242;51.250;-1.118;2023-08-08T05:11:38;100302.44;;;19.65
70668;BMP280;58242;51.250;-1.118;2023-08-08T05:14:03;100309.03;;;19.68
70668;BMP280;58242;51.250;-1.118;2023-08-08T05:16:29;100312.97;;;19.70
70668;BMP280;58242;51.250;-1.118;2023-08-08T05:18:54;100311.03;;;19.74
70668;BMP280;58242;51.250;-1.118;2023-08-08T05:21:21;100320.78;;;19.78
70668;BMP280;58242;51.250;-1.118;2023-08-08T05:23:46;100323.50;;;19.82
70668;BMP280;58242;51.250;-1.118;2023-08-08T05:26:11;100311.13;;;19.84
70668;BMP280;58242;51.250;-1.118;2023-08-08T05:28:37;100307.25;;;19.85
70668;BMP280;58242;51.250;-1.118;2023-08-08T05:31:03;100298.00;;;19.89
70668;BMP280;58242;51.250;-1.118;2023-08-08T05:33:28;100301.09;;;19.91
70668;BMP280;58242;51.250;-1.118;2023-08-08T05:35:53;100293.75;;;19.95
70668;BMP280;58242;51.250;-1.118;2023-08-08T05:38:18;100292.97;;;19.98
70668;BMP280;58242;51.250;-1.118;2023-08-08T05:40:44;100284.47;;;20.00
70668;BMP280;58242;51.250;-1.118;2023-08-08T05:43:09;100291.06;;;20.02
70668;BMP280;58242;51.250;-1.118;2023-08-08T05:45:34;100280.63;;;20.07
70668;BMP280;58242;51.250;-1.118;2023-08-08T05:48:00;100286.47;;;20.13
70668;BMP280;58242;51.250;-1.118;2023-08-08T05:50:26;100291.19;;;20.19
70668;BMP280;58242;51.250;-1.118;2023-08-08T05:52:52;100284.59;;;20.23
70668;BMP280;58242;51.250;-1.118;2023-08-08T05:55:18;100287.34;;;20.27
70668;BMP280;58242;51.250;-1.118;2023-08-08T05:57:43;100285.06;;;20.32
70668;BMP280;58242;51.250;-1.118;2023-08-08T06:00:09;100295.56;;;20.37
70668;BMP280;58242;51.250;-1.118;2023-08-08T06:02:36;100298.28;;;20.40
70668;BMP280;58242;51.250;-1.118;2023-08-08T06:05:02;100288.59;;;20.43
70668;BMP280;58242;51.250;-1.118;2023-08-08T06:07:27;100283.94;;;20.47
70668;BMP280;58242;51.250;-1.118;2023-08-08T06:09:52;100285.53;;;20.51
70668;BMP280;58242;51.250;-1.118;2023-08-08T06:12:18;100288.25;;;20.55
70668;BMP280;58242;51.250;-1.118;2023-08-08T06:14:43;100296.44;;;20.61
70668;BMP280;58242;51.250;-1.118;2023-08-08T06:17:08;100299.94;;;20.65
70668;BMP280;58242;51.250;-1.118;2023-08-08T06:19:34;100295.28;;;20.69
70668;BMP280;58242;51.250;-1.118;2023-08-08T06:22:00;100299.97;;;20.72
70668;BMP280;58242;51.250;-1.118;2023-08-08T06:24:25;100289.47;;;20.74
70668;BMP280;58242;51.250;-1.118;2023-08-08T06:26:50;100303.06;;;20.77
70668;BMP280;58242;51.250;-1.118;2023-08-08T06:29:16;100294.53;;;20.79
70668;BMP280;58242;51.250;-1.118;2023-08-08T06:31:41;100306.56;;;20.78
70668;BMP280;58242;51.250;-1.118;2023-08-08T06:34:07;100306.56;;;20.78
70668;BMP280;58242;51.250;-1.118;2023-08-08T06:36:32;100305.00;;;20.77
70668;BMP280;58242;51.250;-1.118;2023-08-08T06:38:57;100307.72;;;20.77
70668;BMP280;58242;51.250;-1.118;2023-08-08T06:41:23;100298.41;;;20.78
70668;BMP280;58242;51.250;-1.118;2023-08-08T06:43:48;100300.75;;;20.79
70668;BMP280;58242;51.250;-1.118;2023-08-08T06:46:13;100297.28;;;20.82
70668;BMP280;58242;51.250;-1.118;2023-08-08T06:48:39;100298.44;;;20.85
70668;BMP280;58242;51.250;-1.118;2023-08-08T06:51:04;100290.69;;;20.87
70668;BMP280;58242;51.250;-1.118;2023-08-08T06:53:30;100284.09;;;20.88
70668;BMP280;58242;51.250;-1.118;2023-08-08T06:55:55;100285.25;;;20.87
70668;BMP280;58242;51.250;-1.118;2023-08-08T06:58:21;100283.31;;;20.87
70668;BMP280;58242;51.250;-1.118;2023-08-08T07:00:46;100279.81;;;20.90
70668;BMP280;58242;51.250;-1.118;2023-08-08T07:03:12;100279.03;;;20.93
70668;BMP280;58242;51.250;-1.118;2023-08-08T07:05:37;100282.16;;;20.98
70668;BMP280;58242;51.250;-1.118;2023-08-08T07:08:04;100274.81;;;21.02
70668;BMP280;58242;51.250;-1.118;2023-08-08T07:10:30;100281.44;;;21.08
70668;BMP280;58242;51.250;-1.118;2023-08-08T07:12:55;100291.56;;;21.14
70668;BMP280;58242;51.250;-1.118;2023-08-08T07:15:20;100283.41;;;21.21
70668;BMP280;58242;51.250;-1.118;2023-08-08T07:17:45;100290.00;;;21.27
70668;BMP280;58242;51.250;-1.118;2023-08-08T07:20:11;100285.75;;;21.33
70668;BMP280;58242;51.250;-1.118;2023-08-08T07:22:39;100295.44;;;21.37
70668;BMP280;58242;51.250;-1.118;2023-08-08T07:25:04;100291.19;;;21.36
70668;BMP280;58242;51.250;-1.118;2023-08-08T07:27:31;100292.72;;;21.37
70668;BMP280;58242;51.250;-1.118;2023-08-08T07:29:56;100287.28;;;21.37
70668;BMP280;58242;51.250;-1.118;2023-08-08T07:32:21;100285.34;;;21.38
70668;BMP280;58242;51.250;-1.118;2023-08-08T07:34:47;100274.44;;;21.41
70668;BMP280;58242;51.250;-1.118;2023-08-08T07:37:14;100277.19;;;21.44
70668;BMP280;58242;51.250;-1.118;2023-08-08T07:39:39;100275.63;;;21.47
70668;BMP280;58242;51.250;-1.118;2023-08-08T07:42:04;100265.13;;;21.52
70668;BMP280;58242;51.250;-1.118;2023-08-08T07:44:30;100261.25;;;21.57
70668;BMP280;58242;51.250;-1.118;2023-08-08T07:46:56;100264.34;;;21.62
70668;BMP280;58242;51.250;-1.118;2023-08-08T07:49:22;100265.13;;;21.69
70668;BMP280;58242;51.250;-1.118;2023-08-08T07:51:47;100261.59;;;21.79
70668;BMP280;58242;51.250;-1.118;2023-08-08T07:54:12;100260.44;;;21.90
70668;BMP280;58242;51.250;-1.118;2023-08-08T07:56:38;100259.63;;;22.03
70668;BMP280;58242;51.250;-1.118;2023-08-08T07:59:03;100257.66;;;22.14
70668;BMP280;58242;51.250;-1.118;2023-08-08T08:01:29;100254.50;;;22.22
70668;BMP280;58242;51.250;-1.118;2023-08-08T08:03:55;100260.34;;;22.31
70668;BMP280;58242;51.250;-1.118;2023-08-08T08:06:20;100254.84;;;22.38
70668;BMP280;58242;51.250;-1.118;2023-08-08T08:08:45;100258.69;;;22.44
70668;BMP280;58242;51.250;-1.118;2023-08-08T08:11:11;100257.91;;;22.50
70668;BMP280;58242;51.250;-1.118;2023-08-08T08:13:38;100257.91;;;22.57
70668;BMP280;58242;51.250;-1.118;2023-08-08T08:16:03;100257.47;;;22.62
70668;BMP280;58242;51.250;-1.118;2023-08-08T08:18:29;100262.13;;;22.68
70668;BMP280;58242;51.250;-1.118;2023-08-08T08:20:55;100253.16;;;22.71
70668;BMP280;58242;51.250;-1.118;2023-08-08T08:23:20;100255.03;;;22.77
70668;BMP280;58242;51.250;-1.118;2023-08-08T08:25:45;100246.44;;;22.85
70668;BMP280;58242;51.250;-1.118;2023-08-08T08:28:11;100242.88;;;22.95
70668;BMP280;58242;51.250;-1.118;2023-08-08T08:30:36;100240.47;;;23.04
70668;BMP280;58242;51.250;-1.118;2023-08-08T08:33:02;100239.94;;;23.19
70668;BMP280;58242;51.250;-1.118;2023-08-08T08:35:29;100235.50;;;23.42
70668;BMP280;58242;51.250;-1.118;2023-08-08T08:37:54;100236.09;;;23.63
70668;BMP280;58242;51.250;-1.118;2023-08-08T08:40:19;100235.88;;;23.83
70668;BMP280;58242;51.250;-1.118;2023-08-08T08:42:46;100239.16;;;24.07
70668;BMP280;58242;51.250;-1.118;2023-08-08T08:45:13;100238.13;;;24.27
70668;BMP280;58242;51.250;-1.118;2023-08-08T08:47:40;100242.66;;;24.40
70668;BMP280;58242;51.250;-1.118;2023-08-08T08:50:07;100248.03;;;24.47
70668;BMP280;58242;51.250;-1.118;2023-08-08T08:52:33;100251.47;;;24.54
70668;BMP280;58242;51.250;-1.118;2023-08-08T08:54:58;100247.16;;;24.57
70668;BMP280;58242;51.250;-1.118;2023-08-08T08:57:24;100250.19;;;24.62
70668;BMP280;58242;51.250;-1.118;2023-08-08T08:59:50;100250.56;;;24.64
70668;BMP280;58242;51.250;-1.118;2023-08-08T09:02:17;100245.41;;;24.69
70668;BMP280;58242;51.250;-1.118;2023-08-08T09:04:43;100251.97;;;24.75
70668;BMP280;58242;51.250;-1.118;2023-08-08T09:07:09;100253.81;;;24.82
70668;BMP280;58242;51.250;-1.118;2023-08-08T09:09:34;100240.81;;;24.89
70668;BMP280;58242;51.250;-1.118;2023-08-08T09:12:03;100233.22;;;25.00
70668;BMP280;58242;51.250;-1.118;2023-08-08T09:14:28;100233.50;;;25.08
70668;BMP280;58242;51.250;-1.118;2023-08-08T09:16:54;100240.41;;;25.16
70668;BMP280;58242;51.250;-1.118;2023-08-08T09:19:21;100229.09;;;25.18
70668;BMP280;58242;51.250;-1.118;2023-08-08T09:21:47;100243.53;;;25.15
70668;BMP280;58242;51.250;-1.118;2023-08-08T09:24:13;100238.13;;;25.11
70668;BMP280;58242;51.250;-1.118;2023-08-08T09:26:40;100227.63;;;25.10
70668;BMP280;58242;51.250;-1.118;2023-08-08T09:29:05;100223.31;;;25.09
70668;BMP280;58242;51.250;-1.118;2023-08-08T09:31:31;100224.50;;;25.08
70668;BMP280;58242;51.250;-1.118;2023-08-08T09:33:58;100221.00;;;25.07
70668;BMP280;58242;51.250;-1.118;2023-08-08T09:36:23;100219.44;;;25.06
70668;BMP280;58242;51.250;-1.118;2023-08-08T09:38:49;100215.19;;;25.05
70668;BMP280;58242;51.250;-1.118;2023-08-08T09:41:15;100219.94;;;25.02
70668;BMP280;58242;51.250;-1.118;2023-08-08T09:43:45;100212.56;;;24.99
70668;BMP280;58242;51.250;-1.118;2023-08-08T09:46:10;100213.72;;;24.98
70668;BMP280;58242;51.250;-1.118;2023-08-08T09:48:38;100213.00;;;24.94
70668;BMP280;58242;51.250;-1.118;2023-08-08T09:51:04;100216.22;;;24.89
70668;BMP280;58242;51.250;-1.118;2023-08-08T09:53:30;100204.19;;;24.83
70668;BMP280;58242;51.250;-1.118;2023-08-08T09:55:56;100205.84;;;24.77
70668;BMP280;58242;51.250;-1.118;2023-08-08T09:58:22;100203.94;;;24.74
70668;BMP280;58242;51.250;-1.118;2023-08-08T10:00:51;100189.88;;;24.72
70668;BMP280;58242;51.250;-1.118;2023-08-08T10:03:17;100187.22;;;24.69
70668;BMP280;58242;51.250;-1.118;2023-08-08T10:05:43;100198.97;;;24.66
70668;BMP280;58242;51.250;-1.118;2023-08-08T10:08:09;100193.06;;;24.71
70668;BMP280;58242;51.250;-1.118;2023-08-08T10:10:35;100188.91;;;24.86
70668;BMP280;58242;51.250;-1.118;2023-08-08T10:13:01;100188.28;;;25.01
70668;BMP280;58242;51.250;-1.118;2023-08-08T10:15:26;100176.28;;;25.17
70668;BMP280;58242;51.250;-1.118;2023-08-08T10:17:56;100171.00;;;25.29
70668;BMP280;58242;51.250;-1.118;2023-08-08T10:20:24;100175.94;;;25.38
70668;BMP280;58242;51.250;-1.118;2023-08-08T10:22:51;100164.81;;;25.48
70668;BMP280;58242;51.250;-1.118;2023-08-08T10:25:27;100173.25;;;25.56
70668;BMP280;58242;51.250;-1.118;2023-08-08T10:28:03;100168.56;;;25.57
70668;BMP280;58242;51.250;-1.118;2023-08-08T10:30:29;100173.31;;;25.53
70668;BMP280;58242;51.250;-1.118;2023-08-08T10:32:56;100168.63;;;25.54
70668;BMP280;58242;51.250;-1.118;2023-08-08T10:35:22;100166.28;;;25.52
70668;BMP280;58242;51.250;-1.118;2023-08-08T10:37:53;100162.22;;;25.60
70668;BMP280;58242;51.250;-1.118;2023-08-08T10:40:19;100159.94;;;25.58
70668;BMP280;58242;51.250;-1.118;2023-08-08T10:42:46;100160.75;;;25.55
70668;BMP280;58242;51.250;-1.118;2023-08-08T10:45:14;100153.44;;;25.49
70668;BMP280;58242;51.250;-1.118;2023-08-08T10:47:40;100153.97;;;25.41
70668;BMP280;58242;51.250;-1.118;2023-08-08T10:50:10;100149.81;;;25.33
70668;BMP280;58242;51.250;-1.118;2023-08-08T10:52:53;100151.97;;;25.22
70668;BMP280;58242;51.250;-1.118;2023-08-08T10:55:25;100156.88;;;25.08
70668;BMP280;58242;51.250;-1.118;2023-08-08T10:58:03;100161.88;;;24.91
70668;BMP280;58242;51.250;-1.118;2023-08-08T11:00:31;100153.81;;;24.81
70668;BMP280;58242;51.250;-1.118;2023-08-08T11:02:58;100149.13;;;24.81
70668;BMP280;58242;51.250;-1.118;2023-08-08T11:05:24;100144.03;;;24.83
70668;BMP280;58242;51.250;-1.118;2023-08-08T11:07:51;100149.84;;;24.85
70668;BMP280;58242;51.250;-1.118;2023-08-08T11:10:17;100147.88;;;24.86
70668;BMP280;58242;51.250;-1.118;2023-08-08T11:12:53;100148.66;;;24.86
70668;BMP280;58242;51.250;-1.118;2023-08-08T11:15:19;100149.06;;;24.85
70668;BMP280;58242;51.250;-1.118;2023-08-08T11:17:44;100151.53;;;24.79
70668;BMP280;58242;51.250;-1.118;2023-08-08T11:20:10;100146.63;;;24.68
70668;BMP280;58242;51.250;-1.118;2023-08-08T11:22:37;100154.97;;;24.57
70668;BMP280;58242;51.250;-1.118;2023-08-08T11:25:03;100154.75;;;24.45
70668;BMP280;58242;51.250;-1.118;2023-08-08T11:27:29;100151.00;;;24.33
70668;BMP280;58242;51.250;-1.118;2023-08-08T11:29:56;100159.72;;;24.24
70668;BMP280;58242;51.250;-1.118;2023-08-08T11:32:21;100154.34;;;24.17
70668;BMP280;58242;51.250;-1.118;2023-08-08T11:34:47;100152.09;;;24.09
70668;BMP280;58242;51.250;-1.118;2023-08-08T11:37:12;100147.50;;;24.03
70668;BMP280;58242;51.250;-1.118;2023-08-08T11:39:40;100139.75;;;23.98
70668;BMP280;58242;51.250;-1.118;2023-08-08T11:42:06;100149.59;;;23.92
70668;BMP280;58242;51.250;-1.118;2023-08-08T11:44:32;100146.16;;;23.85
70668;BMP280;58242;51.250;-1.118;2023-08-08T11:47:02;100153.22;;;23.79
70668;BMP280;58242;51.250;-1.118;2023-08-08T11:49:27;100152.53;;;23.72
70668;BMP280;58242;51.250;-1.118;2023-08-08T11:51:54;100149.50;;;23.66
70668;BMP280;58242;51.250;-1.118;2023-08-08T11:54:20;100145.66;;;23.61
70668;BMP280;58242;51.250;-1.118;2023-08-08T11:56:46;100142.97;;;23.57
70668;BMP280;58242;51.250;-1.118;2023-08-08T11:59:11;100133.63;;;23.55
70668;BMP280;58242;51.250;-1.118;2023-08-08T12:01:37;100127.81;;;23.53
70668;BMP280;58242;51.250;-1.118;2023-08-08T12:04:07;100116.88;;;23.53
70668;BMP280;58242;51.250;-1.118;2023-08-08T12:06:36;100126.63;;;23.54
70668;BMP280;58242;51.250;-1.118;2023-08-08T12:09:02;100122.78;;;23.48
70668;BMP280;58242;51.250;-1.118;2023-08-08T12:11:28;100120.88;;;23.45
70668;BMP280;58242;51.250;-1.118;2023-08-08T12:13:59;100117.34;;;23.45
70668;BMP280;58242;51.250;-1.118;2023-08-08T12:16:28;100117.00;;;23.43
70668;BMP280;58242;51.250;-1.118;2023-08-08T12:18:54;100106.06;;;23.46
70668;BMP280;58242;51.250;-1.118;2023-08-08T12:21:19;100110.34;;;23.47
70668;BMP280;58242;51.250;-1.118;2023-08-08T12:23:44;100107.59;;;23.47
70668;BMP280;58242;51.250;-1.118;2023-08-08T12:26:11;100113.03;;;23.50
70668;BMP280;58242;51.250;-1.118;2023-08-08T12:28:36;100112.19;;;23.53
70668;BMP280;58242;51.250;-1.118;2023-08-08T12:31:01;100113.75;;;23.54
70668;BMP280;58242;51.250;-1.118;2023-08-08T12:33:27;100118.03;;;23.55
70668;BMP280;58242;51.250;-1.118;2023-08-08T12:35:52;100116.84;;;23.56
70668;BMP280;58242;51.250;-1.118;2023-08-08T12:38:18;100111.38;;;23.56
70668;BMP280;58242;51.250;-1.118;2023-08-08T12:40:44;100119.19;;;23.58
70668;BMP280;58242;51.250;-1.118;2023-08-08T12:43:10;100114.50;;;23.58
70668;BMP280;58242;51.250;-1.118;2023-08-08T12:45:42;100119.56;;;23.56
70668;BMP280;58242;51.250;-1.118;2023-08-08T12:48:07;100114.59;;;23.51
70668;BMP280;58242;51.250;-1.118;2023-08-08T12:50:33;100110.72;;;23.46
70668;BMP280;58242;51.250;-1.118;2023-08-08T12:52:58;100107.22;;;23.45
70668;BMP280;58242;51.250;-1.118;2023-08-08T12:55:23;100111.16;;;23.44
70668;BMP280;58242;51.250;-1.118;2023-08-08T12:57:49;100108.34;;;23.51
70668;BMP280;58242;51.250;-1.118;2023-08-08T13:00:14;100106.25;;;23.62
70668;BMP280;58242;51.250;-1.118;2023-08-08T13:02:40;100115.09;;;23.72
70668;BMP280;58242;51.250;-1.118;2023-08-08T13:05:05;100108.72;;;23.82
70668;BMP280;58242;51.250;-1.118;2023-08-08T13:07:32;100106.31;;;23.91
70668;BMP280;58242;51.250;-1.118;2023-08-08T13:09:57;100105.88;;;23.96
70668;BMP280;58242;51.250;-1.118;2023-08-08T13:12:23;100107.00;;;23.98
70668;BMP280;58242;51.250;-1.118;2023-08-08T13:14:48;100124.56;;;23.97
70668;BMP280;58242;51.250;-1.118;2023-08-08T13:17:13;100102.75;;;23.94
70668;BMP280;58242;51.250;-1.118;2023-08-08T13:19:39;100115.31;;;23.88
70668;BMP280;58242;51.250;-1.118;2023-08-08T13:22:05;100104.44;;;23.84
70668;BMP280;58242;51.250;-1.118;2023-08-08T13:24:31;100103.25;;;23.82
70668;BMP280;58242;51.250;-1.118;2023-08-08T13:26:56;100111.88;;;23.81
70668;BMP280;58242;51.250;-1.118;2023-08-08T13:29:22;100100.59;;;23.79
70668;BMP280;58242;51.250;-1.118;2023-08-08T13:31:47;100095.50;;;23.81
70668;BMP280;58242;51.250;-1.118;2023-08-08T13:34:13;100083.41;;;23.82
70668;BMP280;58242;51.250;-1.118;2023-08-08T13:36:38;100083.75;;;23.83